EDLPETMN

Guest
Details From EDLP - Paderborn Lippstadt
To ETMN - Nordholz
Flight Number -
Tags generated
Created
Modified
Stats Distance 129 nm / 240 km
Max Altitude 7,900 ft / 2,408 m
Waypoints 3
Social Downloads 0
Likes 0
Share

Download

Looking for another format? Having issues loading an existing format? Contact us
Advertisement - Login to hide

Notes

Basic altitude profile: - Ascent Rate: 2500ft/min - Ascent Speed: 250kts - Cruise Altitude: 20000ft - Cruise Speed: 310kts - Descent Rate: 1500ft/min - Descent Speed: 250kts Options: - Use NATs: yes - Use PACOTS: yes - Use low airways: yes - Use high airways: yes

Route

EDLP DENOL ETMN

ID Type Via Altitude (ft/m) Position (lat/lon) Dist (leg/tot) Name
O EDLP APT - 0 / 0 51.61417 / 8.61634 - / 0 nm Paderborn Lippstadt
DENOL FIX - 7,900 / 2,408 51.98333 / 8.67278 22 / 22 nm
O ETMN APT - 0 / 0 53.76767 / 8.65850 107 / 129 nm Nordholz

Altitude Profile

Advertisement - Login to hide

EDLP

Details ICAO EDLP (PAD)
Name Paderborn Lippstadt
Region Germany - Civil
Timezone Europe/Berlin (UTC+2.0)
Stats Elevation 699 ft / 213 m (AMSL)
Location 51.614100° 8.616320°
Runways 1
Magnetic Variation 2.816° E

METAR

EDLP 070720Z 28006KT 230V320 9999 SCT008 BKN014 BKN022 04/02 Q1010

Decode

TAF

TAF TAF EDLP 070500Z 0706/0806 27005KT 4000 BR BKN008 BECMG 0706/0708 28010KT 8000 SCT010 BKN040 PROB30 TEMPO 0708/0710 SHRA BKN014CB BECMG 0718/0721 24005KT BECMG 0800/0803 18007KT

Decode

Departure Runways

ID Width Length Bearing (true/mag) Surface Threshold Overrun Markings Lighting
06 148 ft / 45 m 7,159 ft / 2,182 m 56.72° / 53.90° ASPHALT 0 ft / 0 m 1,063 ft / 324 m PREC-APP CENTERLINE EDGE THRESHOLD ALSF-I REIL-OMNI
24 148 ft / 45 m 7,159 ft / 2,182 m 236.74° / 233.92° ASPHALT 0 ft / 0 m 384 ft / 117 m PREC-APP CENTERLINE EDGE THRESHOLD ALSF-I REIL-OMNI

ETMN

Details ICAO ETMN (FCN)
Name Nordholz
Region Germany - Military
Timezone Europe/Berlin (UTC+2.0)
Stats Elevation 74 ft / 23 m (AMSL)
Location 53.767700° 8.658500°
Runways 1
Magnetic Variation 2.845° E

METAR

ETMN 070720Z 27011KT 9999 SCT022TCU SCT060 BKN110 06/02 Q1008 BLU BLU TEMPO GRN

Decode

TAF

Not found

Destination Runways

ID Width Length Bearing (true/mag) Surface Threshold Overrun Markings Lighting
08 148 ft / 45 m 7,979 ft / 2,432 m 78.29° / 75.44° CONCRETE 0 ft / 0 m 902 ft / 275 m APP CENTERLINE EDGE THRESHOLD MALS
26 148 ft / 45 m 7,979 ft / 2,432 m 258.32° / 255.47° CONCRETE 0 ft / 0 m 902 ft / 275 m PREC-APP CENTERLINE EDGE THRESHOLD MALS

Approach Navaids

Runway Type Ident Frequency Range Bearing (true/mag) Slope Elevation
26 MM MM - - 258.30° / 255.46 ° - 34 ft / 10 m (AMSL)
26 GS NDO 111.90 MHz 10 nm / 19 km 258.60° / 255.76 ° 3.00° 74 ft / 23 m (AMSL)
26 LOC-ILS NDO 111.90 MHz 18 nm / 33 km 258.37° / 255.53 ° - 66 ft / 20 m (AMSL)
26 OM OM - - 258.30° / 255.46 ° - 72 ft / 22 m (AMSL)